Time;durP1;ratioP1;P1;durP2;ratioP2;P2;SDS_P1;SDS_P2;PMS_P1;PMS_P2;Temp;Humidity;BMP_temperature;BMP_pressure;BME280_temperature;BME280_humidity;BME280_pressure;Samples;Min_cycle;Max_cycle;Signal;HPM_P1;HPM_P2
2022/10/18 00:00:47;;;;;;;16.62;12.15;;;;;;;10.96;69.02;101235.94;4485889;32;34368;-73
2022/10/18 00:03:14;;;;;;;20.23;12.65;;;;;;;10.49;70.07;101232.50;4485949;32;34014;-78
2022/10/18 00:05:42;;;;;;;15.65;12.25;;;;;;;10.62;69.73;101229.75;4485558;32;34727;-72
2022/10/18 00:08:09;;;;;;;16.10;12.07;;;;;;;11.06;68.51;101233.59;4485615;32;34212;-76
2022/10/18 00:10:37;;;;;;;17.98;13.80;;;;;;;11.10;68.41;101231.28;4485836;32;34377;-78
2022/10/18 00:13:04;;;;;;;17.55;13.57;;;;;;;11.10;68.44;101231.28;4485654;32;34898;-73
2022/10/18 00:15:32;;;;;;;16.02;12.73;;;;;;;11.11;68.63;101229.41;4485628;32;34852;-77
2022/10/18 00:17:59;;;;;;;17.40;13.48;;;;;;;11.18;67.85;101224.75;4485825;32;34935;-77
2022/10/18 00:20:27;;;;;;;17.95;13.80;;;;;;;10.94;68.71;101223.63;4485107;32;33593;-75
2022/10/18 00:22:54;;;;;;;17.27;13.20;;;;;;;11.17;68.30;101217.69;4485856;32;34067;-78
2022/10/18 00:25:22;;;;;;;17.85;13.75;;;;;;;10.90;68.74;101216.94;4485664;32;34246;-77
2022/10/18 00:27:49;;;;;;;18.80;13.70;;;;;;;10.82;68.85;101221.59;4485424;32;34983;-71
2022/10/18 00:30:17;;;;;;;18.52;13.85;;;;;;;10.96;68.26;101218.81;4485755;32;34578;-78
2022/10/18 00:32:44;;;;;;;19.45;13.85;;;;;;;10.83;68.66;101220.53;4484418;32;34887;-72
2022/10/18 00:35:11;;;;;;;18.08;13.52;;;;;;;10.88;68.62;101222.59;4485181;32;35033;-73
2022/10/18 00:37:39;;;;;;;17.40;12.93;;;;;;;11.19;67.68;101212.87;4485644;32;34664;-73
2022/10/18 00:40:07;;;;;;;19.67;15.05;;;;;;;11.06;67.75;101214.59;4485606;32;33686;-74
2022/10/18 00:42:36;;;;;;;20.75;17.00;;;;;;;11.08;67.77;101215.19;4483681;32;33811;-73
2022/10/18 00:45:19;;;;;;;22.62;16.10;;;;;;;11.09;67.73;101213.31;4485693;32;34905;-73
2022/10/18 00:47:52;;;;;;;19.80;15.95;;;;;;;10.96;68.57;101216.09;4484957;32;34675;-74
2022/10/18 00:50:20;;;;;;;18.67;14.15;;;;;;;10.92;68.46;101217.56;4484302;32;33503;-73
2022/10/18 00:52:52;;;;;;;19.48;13.82;;;;;;;10.79;69.19;101213.03;4483752;32;34031;-73
2022/10/18 00:55:19;;;;;;;15.45;12.98;;;;;;;10.84;69.34;101211.34;4468401;32;35149;-74
2022/10/18 00:57:47;;;;;;;17.92;12.02;;;;;;;10.97;68.85;101201.44;4469810;32;33963;-73
2022/10/18 01:00:16;;;;;;;15.38;11.23;;;;;;;10.99;69.09;101202.06;4468803;32;33661;-73
2022/10/18 01:02:44;;;;;;;16.52;10.80;;;;;;;10.62;69.89;101196.37;4469796;32;33917;-74
2022/10/18 01:05:14;;;;;;;15.85;10.82;;;;;;;10.85;69.24;101201.31;4468569;32;34265;-77
2022/10/18 01:07:52;;;;;;;15.38;11.32;;;;;;;11.10;68.15;101195.97;4469496;32;34688;-73
2022/10/18 01:10:33;;;;;;;14.55;10.73;;;;;;;10.81;69.09;101192.75;4469684;32;34550;-73
2022/10/18 01:13:25;;;;;;;13.62;10.15;;;;;;;10.91;68.49;101184.16;4468157;32;34016;-73
2022/10/18 01:16:00;;;;;;;14.93;10.13;;;;;;;10.56;69.55;101189.06;4469650;32;34052;-73
2022/10/18 01:18:57;;;;;;;13.27;10.90;;;;;;;10.85;69.01;101179.59;4469985;32;34896;-74
2022/10/18 01:21:56;;;;;;;17.67;11.93;;;;;;;10.57;69.48;101177.19;4467412;32;33540;-73
2022/10/18 01:24:36;;;;;;;15.63;11.43;;;;;;;10.53;69.44;101171.34;4468403;32;33970;-73
2022/10/18 01:27:43;;;;;;;15.68;11.80;;;;;;;10.42;69.80;101174.72;4469673;32;34281;-73
2022/10/18 01:30:36;;;;;;;14.23;10.90;;;;;;;10.84;68.39;101169.75;4468226;32;33999;-73
2022/10/18 01:33:34;;;;;;;14.20;10.63;;;;;;;10.62;68.49;101167.34;4477430;32;33665;-73
2022/10/18 01:36:18;;;;;;;14.38;9.73;;;;;;;9.98;70.50;101168.09;4463563;32;33967;-74
2022/10/18 01:38:47;;;;;;;17.10;11.12;;;;;;;10.61;68.69;101173.00;4468292;32;34937;-73
2022/10/18 01:41:16;;;;;;;14.80;9.57;;;;;;;10.52;68.82;101166.97;4468090;32;33712;-72
2022/10/18 01:43:45;;;;;;;14.93;10.98;;;;;;;10.11;69.86;101170.78;4467566;32;33603;-73
2022/10/18 01:46:17;;;;;;;15.77;9.98;;;;;;;10.24;69.86;101162.63;4468044;32;33700;-73
2022/10/18 01:48:45;;;;;;;14.77;10.05;;;;;;;10.01;70.72;101154.09;4467802;32;35074;-73
2022/10/18 01:51:13;;;;;;;13.15;10.10;;;;;;;10.26;69.77;101157.00;4469278;32;34731;-73
2022/10/18 01:53:40;;;;;;;13.25;9.50;;;;;;;10.29;69.68;101158.44;4469253;32;33492;-73
2022/10/18 01:56:26;;;;;;;14.13;10.23;;;;;;;10.34;69.76;101154.06;4468751;32;33632;-72
2022/10/18 01:59:19;;;;;;;14.07;9.45;;;;;;;10.22;69.78;101156.56;4468840;32;35092;-76
2022/10/18 02:02:34;;;;;;;13.98;9.48;;;;;;;10.24;69.79;101146.34;4469145;32;34046;-73
2022/10/18 02:05:21;;;;;;;13.50;9.02;;;;;;;9.97;70.89;101145.56;4467016;32;34226;-73
2022/10/18 02:08:05;;;;;;;12.68;9.25;;;;;;;10.19;70.22;101137.19;4467750;32;33804;-73
2022/10/18 02:10:59;;;;;;;13.88;9.35;;;;;;;9.20;73.29;101137.00;4467831;32;35107;-76
2022/10/18 02:13:31;;;;;;;13.15;9.52;;;;;;;9.86;70.92;101132.66;4467572;32;34506;-73
2022/10/18 02:16:04;;;;;;;13.55;9.63;;;;;;;9.92;70.36;101129.09;4467949;32;34494;-72
2022/10/18 02:18:44;;;;;;;14.27;9.75;;;;;;;9.92;70.51;101129.09;4467595;32;33804;-76
2022/10/18 02:21:15;;;;;;;14.52;10.05;;;;;;;9.79;71.23;101132.66;4467521;32;35149;-73
2022/10/18 02:23:44;;;;;;;12.00;8.50;;;;;;;9.65;71.66;101129.13;4467379;32;34546;-77
2022/10/18 02:26:13;;;;;;;16.90;10.10;;;;;;;10.01;70.42;101132.41;4469602;32;34240;-72
2022/10/18 02:28:41;;;;;;;12.50;8.77;;;;;;;9.87;71.14;101139.75;4484342;32;34871;-72
2022/10/18 02:31:16;;;;;;;12.63;8.82;;;;;;;9.63;71.54;101133.91;4483740;32;34990;-78
2022/10/18 02:33:55;;;;;;;14.32;9.38;;;;;;;10.10;69.59;101136.56;4483062;32;33989;-73
2022/10/18 02:36:28;;;;;;;16.30;9.82;;;;;;;9.85;70.60;101141.84;4483671;32;34297;-73
2022/10/18 02:38:59;;;;;;;14.13;9.50;;;;;;;10.20;69.14;101138.84;4482434;32;34021;-72
2022/10/18 02:41:27;;;;;;;14.00;9.10;;;;;;;9.39;72.02;101142.63;4482963;32;34047;-73
2022/10/18 02:43:54;;;;;;;13.73;9.27;;;;;;;9.59;71.05;101146.22;4483074;32;33947;-73
2022/10/18 02:46:22;;;;;;;12.43;8.98;;;;;;;9.68;71.25;101148.72;4483971;32;33359;-72
2022/10/18 02:48:49;;;;;;;12.60;9.07;;;;;;;9.01;73.15;101143.22;4483370;32;33786;-78
2022/10/18 02:51:17;;;;;;;13.23;9.32;;;;;;;9.33;72.46;101141.59;4483874;32;33857;-72
2022/10/18 02:53:44;;;;;;;14.30;9.68;;;;;;;9.66;71.17;101146.22;4484038;32;34671;-73
2022/10/18 02:56:12;;;;;;;14.30;9.70;;;;;;;9.39;71.72;101131.81;4471655;32;34191;-73
2022/10/18 02:58:39;;;;;;;12.27;8.40;;;;;;;9.55;71.49;101138.72;4470376;32;35192;-77
2022/10/18 03:01:07;;;;;;;13.13;9.50;;;;;;;9.72;70.98;101131.84;4470800;32;34244;-71
2022/10/18 03:03:34;;;;;;;11.55;8.40;;;;;;;9.41;72.13;101140.56;4470595;32;34204;-72
2022/10/18 03:06:01;;;;;;;14.75;9.57;;;;;;;9.44;72.18;101135.56;4470613;32;33804;-72
2022/10/18 03:08:29;;;;;;;16.05;9.50;;;;;;;9.83;71.10;101136.62;4470618;32;34793;-78
2022/10/18 03:10:56;;;;;;;13.23;9.18;;;;;;;9.67;71.25;101142.44;4470141;32;34868;-76
2022/10/18 03:13:24;;;;;;;14.40;9.48;;;;;;;9.74;71.16;101139.72;4484364;32;34711;-71
2022/10/18 03:15:51;;;;;;;12.82;8.80;;;;;;;9.66;71.33;101146.22;4486239;32;34381;-72
2022/10/18 03:18:19;;;;;;;15.05;9.75;;;;;;;10.05;69.83;101149.94;4486141;32;34621;-71
2022/10/18 03:20:46;;;;;;;13.95;9.38;;;;;;;10.25;68.68;101152.59;4486259;32;34248;-72
2022/10/18 03:23:14;;;;;;;15.95;9.25;;;;;;;10.20;68.81;101158.66;4486142;32;33973;-71
2022/10/18 03:25:41;;;;;;;14.25;9.07;;;;;;;9.91;70.08;101157.22;4486288;32;33387;-73
2022/10/18 03:28:12;;;;;;;14.23;8.65;;;;;;;10.10;69.43;101152.84;4470540;32;33981;-71
2022/10/18 03:30:40;;;;;;;13.85;9.23;;;;;;;10.27;68.51;101153.22;4470363;32;34962;-77
2022/10/18 03:33:07;;;;;;;14.30;9.25;;;;;;;10.22;67.86;101159.28;4470470;32;34505;-73
2022/10/18 03:35:34;;;;;;;15.32;8.65;;;;;;;10.04;68.83;101156.38;4470393;32;33450;-72
2022/10/18 03:38:02;;;;;;;17.48;9.00;;;;;;;9.74;69.67;101153.28;4474208;32;34682;-77
2022/10/18 03:40:29;;;;;;;12.57;9.02;;;;;;;9.61;70.41;101148.69;4485830;32;34080;-72
2022/10/18 03:43:02;;;;;;;11.95;8.68;;;;;;;9.45;70.89;101155.34;4486094;32;33981;-78
2022/10/18 03:45:29;;;;;;;12.37;8.60;;;;;;;9.50;70.74;101152.84;4486149;32;34538;-79
2022/10/18 03:47:57;;;;;;;14.00;9.15;;;;;;;9.49;70.93;101150.38;4485636;32;34592;-77
2022/10/18 03:50:25;;;;;;;12.70;9.30;;;;;;;9.53;70.72;101152.47;4485793;32;34248;-78
2022/10/18 03:52:54;;;;;;;14.68;9.80;;;;;;;9.36;70.98;101162.03;4479967;31;34752;-77
2022/10/18 03:55:22;;;;;;;14.30;9.00;;;;;;;9.50;70.54;101158.28;4470161;32;33558;-76
2022/10/18 03:57:49;;;;;;;17.85;9.82;;;;;;;9.59;70.50;101165.19;4470519;32;33897;-77
2022/10/18 04:00:17;;;;;;;14.77;9.77;;;;;;;9.61;70.32;101165.81;4470216;32;35078;-77
2022/10/18 04:02:45;;;;;;;14.90;9.45;;;;;;;9.31;71.35;101165.34;4470180;32;34577;-77
2022/10/18 04:05:13;;;;;;;14.82;9.70;;;;;;;9.30;71.58;101168.25;4470189;32;34427;-77
2022/10/18 04:07:40;;;;;;;14.55;9.02;;;;;;;9.63;70.09;101166.44;4469895;32;33594;-77
2022/10/18 04:10:08;;;;;;;16.48;10.13;;;;;;;9.48;70.76;101164.94;4470121;32;35175;-77
2022/10/18 04:12:35;;;;;;;14.25;9.88;;;;;;;9.50;70.81;101158.28;4470249;32;33438;-77
2022/10/18 04:15:03;;;;;;;16.45;10.13;;;;;;;9.61;69.77;101159.53;4470143;32;33404;-78
2022/10/18 04:17:30;;;;;;;16.00;10.07;;;;;;;9.36;70.65;101154.72;4469877;32;33646;-79
2022/10/18 04:19:58;;;;;;;15.77;10.20;;;;;;;9.54;70.07;101158.69;4469816;32;34059;-78
2022/10/18 04:22:25;;;;;;;14.75;9.77;;;;;;;9.44;70.11;101149.13;4470086;32;33677;-79
2022/10/18 04:24:53;;;;;;;15.35;9.88;;;;;;;9.14;71.31;101155.94;4494980;31;34214;-78
2022/10/18 04:27:20;;;;;;;19.35;10.80;;;;;;;9.56;69.51;101157.44;4470109;32;34685;-79
2022/10/18 04:29:48;;;;;;;15.38;10.85;;;;;;;9.26;70.29;101154.28;4469861;32;35003;-79
2022/10/18 04:32:15;;;;;;;17.80;10.77;;;;;;;9.34;70.27;101154.09;4470013;32;34077;-78
2022/10/18 04:34:43;;;;;;;19.05;13.10;;;;;;;9.03;71.35;101158.22;4469943;32;34328;-78
2022/10/18 04:37:10;;;;;;;20.27;13.73;;;;;;;9.00;71.75;101155.06;4469805;32;34722;-78
2022/10/18 04:39:38;;;;;;;22.58;15.45;;;;;;;9.36;70.80;101145.78;4469950;32;34200;-78
2022/10/18 04:42:05;;;;;;;20.42;14.30;;;;;;;9.35;70.57;101150.38;4469779;32;34760;-78
2022/10/18 04:44:33;;;;;;;22.60;12.98;;;;;;;9.20;71.21;101142.41;4469884;32;34091;-78
2022/10/18 04:47:00;;;;;;;20.08;13.30;;;;;;;9.41;70.40;101143.28;4469985;32;34083;-78
2022/10/18 04:49:28;;;;;;;19.52;13.05;;;;;;;9.52;70.46;101139.94;4469836;32;34797;-78
2022/10/18 04:51:55;;;;;;;19.45;12.88;;;;;;;9.51;70.01;101135.56;4469449;32;34000;-78
2022/10/18 04:54:23;;;;;;;18.25;12.13;;;;;;;9.60;69.55;101134.31;4470011;32;33655;-78
2022/10/18 04:56:54;;;;;;;19.42;13.38;;;;;;;9.41;69.96;101124.31;4469897;32;34051;-78
2022/10/18 04:59:22;;;;;;;22.25;12.65;;;;;;;9.20;70.90;101122.59;4469618;32;34200;-78
2022/10/18 05:01:49;;;;;;;18.10;12.63;;;;;;;8.98;71.68;101119.25;4469700;32;34022;-78
2022/10/18 05:04:17;;;;;;;19.73;12.27;;;;;;;9.31;70.85;101123.88;4469827;32;34256;-78
2022/10/18 05:06:45;;;;;;;18.27;12.50;;;;;;;9.04;71.60;101119.25;4469566;32;34923;-78
2022/10/18 05:09:12;;;;;;;17.52;12.05;;;;;;;9.21;71.03;101114.28;4468940;32;34139;-78
2022/10/18 05:11:39;;;;;;;20.10;12.45;;;;;;;8.95;72.17;101116.94;4469677;32;34780;-78
2022/10/18 05:14:09;;;;;;;25.75;19.58;;;;;;;9.15;71.82;101122.41;4469756;32;33579;-76
2022/10/18 05:16:36;;;;;;;17.80;11.60;;;;;;;9.26;71.48;101123.66;4484370;32;33846;-78
2022/10/18 05:19:04;;;;;;;15.85;10.90;;;;;;;9.44;70.86;101122.03;4484365;32;35048;-77
2022/10/18 05:21:32;;;;;;;21.05;12.55;;;;;;;9.73;69.14;101121.81;4485012;32;33720;-77
2022/10/18 05:23:59;;;;;;;17.25;11.38;;;;;;;9.62;69.03;101123.28;4485092;32;34227;-77
2022/10/18 05:26:27;;;;;;;16.05;11.88;;;;;;;9.62;69.36;101124.09;4484929;32;33772;-78
2022/10/18 05:28:54;;;;;;;16.55;11.93;;;;;;;9.82;68.35;101120.53;4479899;32;34828;-75
2022/10/18 05:31:22;;;;;;;21.25;12.65;;;;;;;9.54;69.07;101131.59;4469249;32;34879;-76
2022/10/18 05:33:49;;;;;;;22.08;12.90;;;;;;;9.67;68.60;101123.47;4469165;32;33724;-76
2022/10/18 05:36:17;;;;;;;18.08;12.55;;;;;;;9.81;67.88;101119.72;4469136;32;33805;-77
2022/10/18 05:38:44;;;;;;;20.23;13.43;;;;;;;9.69;69.01;101118.69;4469042;32;34156;-76
2022/10/18 05:41:11;;;;;;;19.77;12.95;;;;;;;9.45;70.14;101131.81;4469057;32;34743;-81
2022/10/18 05:43:39;;;;;;;21.30;13.98;;;;;;;9.64;69.69;101123.91;4469339;32;33443;-76
2022/10/18 05:46:07;;;;;;;21.37;14.00;;;;;;;9.39;70.86;101127.22;4469326;32;34470;-76
2022/10/18 05:48:40;;;;;;;20.55;12.55;;;;;;;9.26;71.49;101123.66;4469236;32;33880;-76
2022/10/18 05:51:07;;;;;;;19.60;13.43;;;;;;;9.51;70.63;101127.44;4479292;32;34818;-76
2022/10/18 05:53:35;;;;;;;18.42;12.20;;;;;;;9.28;71.79;101127.00;4484817;32;33561;-76
2022/10/18 05:56:05;;;;;;;21.02;13.80;;;;;;;9.62;70.92;101126.00;4484601;32;33831;-76
2022/10/18 05:58:33;;;;;;;21.62;13.98;;;;;;;9.36;71.81;101130.34;4484422;32;33973;-76
2022/10/18 06:01:02;;;;;;;20.98;13.52;;;;;;;9.32;72.23;101128.25;4484658;32;34034;-75
2022/10/18 06:03:30;;;;;;;20.33;13.80;;;;;;;9.51;71.89;101126.62;4484606;32;33394;-75
2022/10/18 06:06:02;;;;;;;21.42;14.63;;;;;;;9.57;71.50;101132.03;4484526;32;33980;-74
2022/10/18 06:08:31;;;;;;;29.83;19.00;;;;;;;9.61;71.85;101125.16;4483972;32;33829;-77
2022/10/18 06:10:58;;;;;;;25.05;15.68;;;;;;;9.53;72.41;101132.66;4483913;32;33984;-75
2022/10/18 06:13:25;;;;;;;35.60;21.87;;;;;;;9.64;72.69;101122.03;4484467;32;33777;-78
2022/10/18 06:15:56;;;;;;;33.60;20.55;;;;;;;9.67;75.10;101126.19;4484520;32;33702;-77
2022/10/18 06:18:23;;;;;;;30.40;19.40;;;;;;;10.06;73.66;101130.75;4483914;32;34013;-75
2022/10/18 06:20:58;;;;;;;30.73;18.05;;;;;;;10.23;73.58;101133.81;4483336;32;34970;-77
2022/10/18 06:23:26;;;;;;;29.87;18.50;;;;;;;11.36;70.26;101131.66;4484224;32;34640;-76
2022/10/18 06:25:59;;;;;;;31.60;19.77;;;;;;;11.77;67.68;101147.44;4484565;32;34052;-75
2022/10/18 06:28:27;;;;;;;29.45;19.73;;;;;;;12.16;66.54;101142.72;4483941;32;34978;-75
2022/10/18 06:30:57;;;;;;;33.72;22.05;;;;;;;12.73;64.88;101139.75;4484644;32;34619;-77
2022/10/18 06:33:25;;;;;;;32.85;20.85;;;;;;;12.95;63.30;101147.44;4486288;32;33319;-77
2022/10/18 06:35:55;;;;;;;30.40;19.85;;;;;;;13.73;61.32;101138.31;4485966;32;35169;-78
2022/10/18 06:38:23;;;;;;;30.80;19.42;;;;;;;14.13;60.41;101141.16;4484553;32;34013;-78
2022/10/18 06:40:50;;;;;;;30.42;18.80;;;;;;;15.12;58.25;101139.41;4484854;32;33513;-77
2022/10/18 06:43:18;;;;;;;19.50;15.18;;;;;;;15.67;56.97;101141.44;4486264;32;33586;-78
2022/10/18 06:45:48;;;;;;;19.80;13.98;;;;;;;15.98;55.63;101140.06;4485850;32;34939;-78
2022/10/18 06:48:16;;;;;;;17.02;11.60;;;;;;;16.25;55.94;101144.00;4485769;32;34206;-78
2022/10/18 06:50:51;;;;;;;14.05;11.02;;;;;;;16.22;55.54;101141.75;4482866;32;34787;-76
2022/10/18 06:53:18;;;;;;;17.80;11.12;;;;;;;15.90;56.27;101142.41;4486096;32;33203;-78
2022/10/18 06:55:45;;;;;;;16.27;10.68;;;;;;;15.77;57.11;101146.28;4484906;32;34780;-76
2022/10/18 06:58:13;;;;;;;15.05;11.32;;;;;;;14.89;61.55;101141.16;4485770;32;34222;-77
2022/10/18 07:00:40;;;;;;;19.48;12.65;;;;;;;14.33;64.27;101151.69;4485777;32;34877;-75
2022/10/18 07:03:08;;;;;;;17.98;12.55;;;;;;;15.36;59.97;101151.87;4485986;32;33563;-76
2022/10/18 07:05:35;;;;;;;18.50;11.82;;;;;;;15.59;58.55;101152.78;4485659;32;33814;-77
2022/10/18 07:08:03;;;;;;;18.10;12.20;;;;;;;15.47;59.22;101165.72;4486058;32;33782;-74
2022/10/18 07:10:30;;;;;;;18.33;12.07;;;;;;;15.60;58.87;101157.19;4485535;32;34682;-77
2022/10/18 07:12:58;;;;;;;19.58;12.75;;;;;;;15.50;59.10;101149.63;4485728;32;34159;-77
2022/10/18 07:15:45;;;;;;;17.83;12.27;;;;;;;15.45;59.04;101156.94;4486160;32;33896;-77
2022/10/18 07:18:13;;;;;;;18.75;11.82;;;;;;;15.25;59.79;101149.19;4485743;32;34226;-81
2022/10/18 07:20:42;;;;;;;20.20;13.82;;;;;;;15.46;58.69;101144.91;4484646;32;33385;-76
2022/10/18 07:23:10;;;;;;;22.58;14.05;;;;;;;15.45;58.78;101146.00;4485712;32;34451;-79
2022/10/18 07:25:38;;;;;;;19.83;12.75;;;;;;;15.67;58.77;101140.62;4485774;32;34057;-77
2022/10/18 07:28:05;;;;;;;21.37;13.90;;;;;;;15.78;57.77;101140.56;4486207;32;34177;-77
2022/10/18 07:30:32;;;;;;;17.52;12.68;;;;;;;15.86;57.52;101136.59;4471775;32;34796;-77
2022/10/18 07:33:00;;;;;;;19.48;12.57;;;;;;;16.00;56.44;101123.38;4469993;32;34353;-75
2022/10/18 07:35:27;;;;;;;20.88;13.23;;;;;;;16.02;57.11;101131.34;4469662;32;33889;-76
2022/10/18 07:37:55;;;;;;;20.30;13.13;;;;;;;15.84;57.75;101125.06;4470348;32;33763;-77
2022/10/18 07:40:22;;;;;;;22.45;13.48;;;;;;;15.71;58.99;101122.63;4469472;32;34009;-77
2022/10/18 07:42:50;;;;;;;17.65;12.85;;;;;;;15.74;59.78;101133.94;4468717;32;34103;-77
2022/10/18 07:45:17;;;;;;;20.50;12.05;;;;;;;16.33;57.48;101132.63;4470280;32;33387;-76
2022/10/18 07:47:45;;;;;;;16.05;11.32;;;;;;;16.02;58.29;101134.91;4469651;32;33901;-78
2022/10/18 07:50:12;;;;;;;16.65;10.85;;;;;;;16.19;53.80;101132.13;4469266;32;33729;-77
2022/10/18 07:52:41;;;;;;;15.48;9.75;;;;;;;16.53;54.73;101137.53;4469754;32;33243;-78
2022/10/18 07:55:09;;;;;;;17.60;9.90;;;;;;;16.71;51.82;101142.66;4468431;32;33740;-78
2022/10/18 07:57:36;;;;;;;16.58;9.32;;;;;;;16.84;50.42;101143.41;4470565;32;34117;-72
2022/10/18 08:00:04;;;;;;;13.38;10.18;;;;;;;17.60;47.87;101129.59;4483701;32;33953;-73
2022/10/18 08:02:37;;;;;;;13.07;9.05;;;;;;;17.02;48.45;101129.38;4485387;32;33686;-73
2022/10/18 08:05:05;;;;;;;12.77;8.85;;;;;;;17.15;48.46;101122.63;4484712;32;34094;-72
2022/10/18 08:07:32;;;;;;;12.90;8.68;;;;;;;16.78;48.19;101129.63;4485772;32;34347;-72
2022/10/18 08:10:00;;;;;;;12.85;8.90;;;;;;;16.67;49.38;101122.34;4485346;32;34136;-72
2022/10/18 08:12:28;;;;;;;16.15;10.15;;;;;;;16.94;47.58;101114.19;4485470;32;34229;-71
2022/10/18 08:14:55;;;;;;;17.23;9.48;;;;;;;17.06;48.20;101113.19;4485832;32;34099;-72
2022/10/18 08:17:23;;;;;;;15.70;9.25;;;;;;;17.12;49.57;101112.16;4485515;32;34983;-72
2022/10/18 08:19:50;;;;;;;12.73;8.15;;;;;;;17.57;48.36;101108.19;4484998;32;34851;-71
2022/10/18 08:22:38;;;;;;;14.30;7.85;;;;;;;17.19;47.55;101105.41;4484466;32;34321;-73
2022/10/18 08:25:06;;;;;;;11.55;7.68;;;;;;;17.59;44.82;101098.59;4484016;32;34034;-73
2022/10/18 08:27:33;;;;;;;11.48;7.57;;;;;;;17.86;44.51;101094.16;4485523;32;33990;-77
2022/10/18 08:30:01;;;;;;;11.82;6.95;;;;;;;17.98;44.10;101097.53;4485118;32;34636;-76
2022/10/18 08:32:29;;;;;;;12.20;7.70;;;;;;;17.65;45.61;101087.69;4485813;32;33840;-78
2022/10/18 08:34:57;;;;;;;11.12;7.60;;;;;;;17.78;45.48;101096.28;4485130;32;33986;-78
2022/10/18 08:37:24;;;;;;;12.75;7.53;;;;;;;17.48;46.45;101087.81;4485451;32;34313;-75
2022/10/18 08:39:52;;;;;;;12.85;7.22;;;;;;;17.45;46.46;101089.19;4482680;32;97830;-75
2022/10/18 08:42:35;;;;;;;11.15;7.60;;;;;;;17.94;44.17;101082.66;4485247;32;33598;-74
2022/10/18 08:45:04;;;;;;;11.20;6.70;;;;;;;18.06;45.70;101077.00;4485668;32;34707;-74
2022/10/18 08:47:47;;;;;;;11.15;6.62;;;;;;;18.33;44.00;101080.41;4484625;32;34395;-75
2022/10/18 08:50:18;;;;;;;10.77;6.20;;;;;;;18.48;43.81;101074.13;4483968;32;33897;-75
2022/10/18 08:53:11;;;;;;;9.45;5.93;;;;;;;19.36;41.92;101073.25;4483113;32;33698;-75
2022/10/18 08:55:45;;;;;;;9.43;5.82;;;;;;;20.12;39.38;101068.72;4483996;32;33970;-75
2022/10/18 08:58:17;;;;;;;9.18;6.18;;;;;;;20.52;37.93;101066.09;4484116;32;34979;-75
2022/10/18 09:00:57;;;;;;;9.20;6.18;;;;;;;21.02;37.52;101062.25;4485000;32;33778;-74
2022/10/18 09:03:50;;;;;;;9.60;6.18;;;;;;;20.33;36.87;101054.91;4482937;32;34343;-73
2022/10/18 09:06:27;;;;;;;8.93;6.20;;;;;;;20.28;38.01;101053.00;4456143;31;33787;-76
2022/10/18 09:09:34;;;;;;;10.15;5.72;;;;;;;20.61;37.64;101053.41;4483894;32;35114;-73
2022/10/18 09:12:27;;;;;;;10.80;6.32;;;;;;;19.78;38.24;101055.59;4484541;32;33717;-75
2022/10/18 09:15:19;;;;;;;8.63;5.78;;;;;;;19.61;38.99;101052.28;4484181;32;33321;-74
2022/10/18 09:18:06;;;;;;;8.13;4.80;;;;;;;20.07;38.11;101039.28;4484694;32;33955;-73
2022/10/18 09:20:49;;;;;;;8.00;5.57;;;;;;;19.44;37.18;101045.16;4483378;32;34557;-74
2022/10/18 09:23:38;;;;;;;7.72;4.93;;;;;;;19.61;36.90;101039.38;4485328;32;33983;-74
2022/10/18 09:26:20;;;;;;;7.43;4.95;;;;;;;20.13;38.08;101039.25;4484938;32;33397;-75
2022/10/18 09:29:09;;;;;;;7.05;4.75;;;;;;;20.61;37.68;101032.16;4483678;32;33893;-74
2022/10/18 09:31:43;;;;;;;8.93;4.70;;;;;;;20.81;36.89;101039.47;4483648;32;34257;-75
2022/10/18 09:34:29;;;;;;;8.07;5.00;;;;;;;20.74;36.30;101029.91;4484431;32;34072;-74
2022/10/18 09:36:57;;;;;;;6.90;4.85;;;;;;;21.46;35.30;101022.69;4477262;32;33386;-74
2022/10/18 09:39:30;;;;;;;6.90;4.53;;;;;;;21.35;36.26;101025.84;4467924;32;33917;-72
2022/10/18 09:42:18;;;;;;;7.35;5.18;;;;;;;21.42;33.86;101013.34;4467454;32;34042;-75
2022/10/18 09:44:48;;;;;;;7.97;4.95;;;;;;;20.97;35.43;101017.28;4467296;32;35026;-75
2022/10/18 09:47:18;;;;;;;8.10;5.00;;;;;;;21.38;35.68;101011.44;4467087;32;33152;-76
2022/10/18 09:49:48;;;;;;;9.40;5.30;;;;;;;21.41;34.68;101008.97;4469098;32;34039;-74
2022/10/18 09:52:20;;;;;;;8.73;4.93;;;;;;;21.38;33.65;101006.75;4467285;32;34184;-75
2022/10/18 09:54:58;;;;;;;8.32;5.47;;;;;;;20.49;35.58;101001.31;4468060;32;34711;-75
2022/10/18 09:57:56;;;;;;;7.72;5.25;;;;;;;20.85;34.46;101009.41;4467678;32;33334;-75
2022/10/18 10:00:56;;;;;;;7.87;4.80;;;;;;;21.06;35.39;101007.31;4458849;32;33953;-75
2022/10/18 10:03:24;;;;;;;8.77;5.60;;;;;;;20.97;36.88;101000.75;4441854;32;34198;-76
2022/10/18 10:06:10;;;;;;;7.65;5.07;;;;;;;21.39;34.89;101002.06;4470639;32;35278;-77
2022/10/18 10:08:43;;;;;;;6.60;4.70;;;;;;;20.86;35.87;100998.09;4473366;32;33391;-75
2022/10/18 10:11:30;;;;;;;6.57;4.47;;;;;;;21.64;34.46;100987.16;4486245;32;33615;-76
2022/10/18 10:14:11;;;;;;;7.97;5.35;;;;;;;21.76;34.86;100976.56;4486290;32;35067;-75
2022/10/18 10:16:58;;;;;;;7.18;4.78;;;;;;;21.37;35.71;100982.19;4483911;32;33747;-75
2022/10/18 10:19:34;;;;;;;8.38;5.00;;;;;;;20.82;35.45;100977.69;4486263;32;34638;-77
2022/10/18 10:22:06;;;;;;;8.93;4.95;;;;;;;21.42;34.50;100971.12;4486492;32;34936;-76
2022/10/18 10:24:36;;;;;;;7.35;4.60;;;;;;;21.29;34.49;100964.31;4484570;32;34066;-76
2022/10/18 10:27:06;;;;;;;8.38;4.32;;;;;;;20.88;34.56;100964.69;4484874;32;34563;-76
2022/10/18 10:29:47;;;;;;;8.68;4.57;;;;;;;21.26;34.36;100965.72;4485162;32;32979;-76
2022/10/18 10:32:16;;;;;;;7.50;4.78;;;;;;;;;;4486340;32;34109;-76
2022/10/18 10:34:43;;;;;;;8.55;4.57;;;;;;;21.15;35.23;100953.13;4486569;32;34634;-77
2022/10/18 10:37:32;;;;;;;6.80;4.45;;;;;;;21.39;34.86;100960.62;4484800;32;34803;-76
2022/10/18 10:40:16;;;;;;;9.20;5.00;;;;;;;21.64;35.01;100948.50;4485645;32;34544;-76
2022/10/18 10:42:54;;;;;;;7.55;5.30;;;;;;;21.90;34.71;100944.34;4485232;32;33851;-76
2022/10/18 10:45:59;;;;;;;11.27;4.70;;;;;;;21.97;35.70;100948.69;4484413;32;33763;-74
2022/10/18 10:48:30;;;;;;;8.00;4.57;;;;;;;21.74;34.62;100934.59;4462142;31;33949;-74
2022/10/18 10:51:08;;;;;;;7.93;4.43;;;;;;;22.26;32.95;100934.75;4467987;32;33585;-74
2022/10/18 10:53:50;;;;;;;7.03;4.03;;;;;;;21.61;33.85;100933.34;4468583;32;34042;-75
2022/10/18 10:56:22;;;;;;;9.75;4.40;;;;;;;21.59;34.23;100924.53;4475306;32;34183;-75
2022/10/18 10:58:51;;;;;;;6.18;3.90;;;;;;;21.91;33.77;100923.88;4484248;32;34669;-74
2022/10/18 11:01:24;;;;;;;6.55;4.25;;;;;;;21.62;34.91;100912.06;4483706;32;33636;-74
2022/10/18 11:03:55;;;;;;;6.25;4.18;;;;;;;22.26;33.95;100918.19;4484550;32;33886;-77
2022/10/18 11:06:45;;;;;;;6.47;4.03;;;;;;;22.17;32.93;100918.00;4484618;32;33790;-76
2022/10/18 11:09:26;;;;;;;5.90;3.75;;;;;;;22.30;33.29;100910.94;4483247;32;34071;-77
2022/10/18 11:12:00;;;;;;;5.35;4.00;;;;;;;22.80;31.58;100904.87;4484858;32;33499;-75
2022/10/18 11:14:34;;;;;;;4.83;3.47;;;;;;;22.23;32.75;100902.19;4484739;32;34848;-84
2022/10/18 11:17:12;;;;;;;5.57;3.87;;;;;;;22.26;32.50;100905.16;4482486;32;34520;-79
2022/10/18 11:19:59;;;;;;;5.50;3.62;;;;;;;21.73;32.31;100898.97;4483348;32;34719;-78
2022/10/18 11:22:31;;;;;;;4.05;3.10;;;;;;;22.31;33.28;100896.81;4484783;32;33333;-76
2022/10/18 11:25:01;;;;;;;6.45;3.40;;;;;;;22.63;31.98;100894.37;4481610;32;33672;-79
2022/10/18 11:27:55;;;;;;;4.68;3.45;;;;;;;23.16;30.96;100894.03;4484573;32;34074;-78
2022/10/18 11:31:15;;;;;;;7.25;3.55;;;;;;;22.90;30.39;100891.69;4484004;32;34059;-80
2022/10/18 11:34:19;;;;;;;6.47;3.37;;;;;;;22.76;30.18;100874.22;4407203;32;34521;-77
2022/10/18 11:37:02;;;;;;;5.85;3.40;;;;;;;23.58;29.43;100877.44;4418962;32;34850;-77
2022/10/18 11:40:07;;;;;;;4.75;3.00;;;;;;;23.52;30.46;100876.69;4484181;32;34175;-78
2022/10/18 11:42:50;;;;;;;6.93;2.97;;;;;;;23.91;29.60;100865.09;4484716;32;34022;-77
2022/10/18 11:45:36;;;;;;;4.15;3.22;;;;;;;23.48;30.38;100865.44;4484742;32;34368;-80